Time;durP1;ratioP1;P1;durP2;ratioP2;P2;SDS_P1;SDS_P2;PMS_P1;PMS_P2;Temp;Humidity;BMP_temperature;BMP_pressure;BME280_temperature;BME280_humidity;BME280_pressure;Samples;Min_cycle;Max_cycle;Signal;HPM_P1;HPM_P2
2021/06/30 00:02:19;;;;;;;6.15;5.00;;;18.60;99.90;;;;;;5075927;28;20046;-91
2021/06/30 00:04:45;;;;;;;9.38;5.70;;;18.70;99.90;;;;;;5075288;28;20036;-91
2021/06/30 00:07:37;;;;;;;7.30;5.28;;;18.60;99.90;;;;;;5077225;28;20450;-92
2021/06/30 00:10:05;;;;;;;5.70;4.88;;;18.60;99.90;;;;;;5075622;28;20115;-91
2021/06/30 00:12:31;;;;;;;5.10;4.60;;;18.60;99.90;;;;;;5079386;28;20082;-91
2021/06/30 00:14:57;;;;;;;7.50;5.75;;;18.50;99.90;;;;;;5079943;28;20512;-90
2021/06/30 00:17:23;;;;;;;7.65;5.05;;;18.50;99.90;;;;;;5096332;28;20935;-92
2021/06/30 00:19:49;;;;;;;7.53;4.95;;;18.50;99.90;;;;;;5079942;28;20064;-91
2021/06/30 00:22:15;;;;;;;7.32;4.80;;;18.50;99.90;;;;;;5079102;28;20028;-91
2021/06/30 00:24:41;;;;;;;5.28;4.78;;;18.50;99.90;;;;;;5096558;28;20097;-91
2021/06/30 00:27:06;;;;;;;7.85;4.80;;;18.40;99.90;;;;;;5079003;28;20563;-91
2021/06/30 00:29:32;;;;;;;6.03;4.97;;;18.40;99.90;;;;;;5079479;28;20040;-92
2021/06/30 00:31:58;;;;;;;7.40;5.25;;;18.40;99.90;;;;;;5079582;28;20028;-91
2021/06/30 00:34:24;;;;;;;8.98;5.93;;;18.30;99.90;;;;;;5079077;28;20165;-91
2021/06/30 00:36:49;;;;;;;6.70;5.07;;;18.30;99.90;;;;;;5078998;28;20040;-92
2021/06/30 00:39:16;;;;;;;5.78;4.78;;;18.30;99.90;;;;;;5079285;28;20107;-91
2021/06/30 00:41:43;;;;;;;6.85;5.30;;;18.30;99.90;;;;;;5078796;28;20126;-91
2021/06/30 00:44:09;;;;;;;6.70;4.63;;;18.20;99.90;;;;;;5079186;28;20050;-92
2021/06/30 00:46:36;;;;;;;5.63;4.30;;;18.20;99.90;;;;;;5078463;28;20036;-91
2021/06/30 00:49:03;;;;;;;5.95;4.78;;;18.20;99.90;;;;;;5078707;28;20047;-92
2021/06/30 00:51:29;;;;;;;8.27;4.45;;;18.20;99.90;;;;;;5096566;28;20066;-91
2021/06/30 00:53:55;;;;;;;7.28;5.13;;;18.20;99.90;;;;;;5078679;28;20591;-91
2021/06/30 00:56:24;;;;;;;5.55;4.30;;;18.20;99.90;;;;;;5078513;28;20501;-91
2021/06/30 00:58:51;;;;;;;5.78;4.57;;;18.20;99.90;;;;;;5078681;28;20032;-91
2021/06/30 01:01:18;;;;;;;6.20;4.55;;;18.20;99.90;;;;;;5078280;28;20067;-92
2021/06/30 01:03:44;;;;;;;5.85;4.40;;;18.20;99.90;;;;;;5078613;28;20036;-90
2021/06/30 01:06:10;;;;;;;5.00;4.38;;;18.20;99.90;;;;;;5096542;28;20024;-92
2021/06/30 01:08:36;;;;;;;4.70;4.15;;;18.20;99.90;;;;;;5096727;28;20534;-92
2021/06/30 01:11:02;;;;;;;4.50;4.10;;;18.20;99.90;;;;;;5096029;28;20461;-92
2021/06/30 01:13:27;;;;;;;5.63;4.18;;;18.20;99.90;;;;;;5078012;28;20035;-92
2021/06/30 01:15:55;;;;;;;8.02;4.60;;;18.20;99.90;;;;;;5078072;28;20035;-92
2021/06/30 01:18:26;;;;;;;6.47;4.30;;;18.20;99.90;;;;;;5078061;28;20386;-92
2021/06/30 01:20:53;;;;;;;5.50;4.25;;;18.20;99.90;;;;;;5078176;28;20035;-91
2021/06/30 01:23:19;;;;;;;5.55;4.63;;;18.20;99.90;;;;;;5076615;28;20036;-91
2021/06/30 01:25:45;;;;;;;5.57;4.72;;;18.20;99.90;;;;;;5077673;28;20043;-92
2021/06/30 01:28:12;;;;;;;5.22;4.15;;;18.20;99.90;;;;;;5077545;28;20546;-91
2021/06/30 01:30:39;;;;;;;4.30;3.90;;;18.20;99.90;;;;;;5077432;28;20091;-92
2021/06/30 01:33:05;;;;;;;5.60;4.32;;;18.10;99.90;;;;;;5077525;28;20070;-92
2021/06/30 01:35:31;;;;;;;5.40;4.38;;;18.20;99.90;;;;;;5077339;28;20032;-91
2021/06/30 01:37:56;;;;;;;8.13;4.40;;;18.20;99.90;;;;;;5077501;28;20036;-92
2021/06/30 01:40:23;;;;;;;4.43;3.92;;;18.10;99.90;;;;;;5077692;28;20036;-91
2021/06/30 01:42:51;;;;;;;4.82;4.28;;;18.20;99.90;;;;;;5077228;28;20040;-92
2021/06/30 01:45:17;;;;;;;4.63;4.13;;;18.10;99.90;;;;;;5082560;28;20032;-91
2021/06/30 01:47:43;;;;;;;6.57;4.43;;;18.10;99.90;;;;;;5087174;28;20050;-91
2021/06/30 01:50:09;;;;;;;5.82;3.75;;;18.10;99.90;;;;;;5104415;28;20054;-91
2021/06/30 01:52:35;;;;;;;5.10;4.38;;;18.10;99.90;;;;;;5098915;28;20054;-92
2021/06/30 01:55:05;;;;;;;8.05;4.65;;;18.20;99.90;;;;;;5095835;28;20036;-92
2021/06/30 01:57:31;;;;;;;6.72;4.55;;;18.10;99.90;;;;;;5077499;28;20036;-92
2021/06/30 01:59:57;;;;;;;4.63;4.18;;;18.10;99.90;;;;;;5077193;28;20115;-91
2021/06/30 02:02:28;;;;;;;5.53;4.53;;;18.10;99.90;;;;;;5077059;28;20027;-91
2021/06/30 02:05:10;;;;;;;5.55;4.00;;;18.10;99.90;;;;;;5077134;28;20385;-91
2021/06/30 02:07:36;;;;;;;5.38;4.28;;;18.10;99.90;;;;;;5102250;28;20063;-91
2021/06/30 02:10:08;;;;;;;4.53;4.13;;;18.10;99.90;;;;;;5093588;28;20066;-92
2021/06/30 02:12:35;;;;;;;5.93;4.22;;;18.20;99.90;;;;;;5076849;28;20031;-91
2021/06/30 02:15:02;;;;;;;5.80;4.38;;;18.20;99.90;;;;;;5076627;28;20036;-91
2021/06/30 02:17:28;;;;;;;4.90;3.97;;;18.30;99.90;;;;;;5094988;28;20035;-91
2021/06/30 02:19:54;;;;;;;4.95;4.30;;;18.30;99.90;;;;;;5076646;28;20044;-91
2021/06/30 02:22:20;;;;;;;4.28;3.88;;;18.30;99.90;;;;;;5094910;28;20030;-91
2021/06/30 02:24:45;;;;;;;4.57;3.75;;;18.40;99.90;;;;;;5076539;28;20511;-91
2021/06/30 02:27:12;;;;;;;5.90;4.03;;;18.40;99.90;;;;;;5076497;28;20064;-91
2021/06/30 02:29:37;;;;;;;6.32;3.95;;;18.40;99.90;;;;;;5076617;28;20047;-91
2021/06/30 02:32:04;;;;;;;6.32;4.20;;;18.50;99.90;;;;;;5076739;28;20435;-91
2021/06/30 02:34:30;;;;;;;4.20;3.72;;;18.60;99.90;;;;;;5095185;28;20028;-91
2021/06/30 02:36:56;;;;;;;4.95;4.00;;;18.60;99.90;;;;;;5093467;28;20141;-91
2021/06/30 02:39:21;;;;;;;4.60;4.20;;;18.60;99.90;;;;;;5076307;28;20028;-91
2021/06/30 02:41:47;;;;;;;8.23;4.90;;;18.60;99.90;;;;;;5076210;28;20059;-91
2021/06/30 02:44:13;;;;;;;6.07;4.60;;;18.60;99.90;;;;;;5076161;28;20036;-91
2021/06/30 02:46:39;;;;;;;4.78;4.22;;;18.70;99.90;;;;;;5076241;28;20450;-91
2021/06/30 02:49:05;;;;;;;5.57;4.60;;;18.70;99.90;;;;;;5075866;28;20501;-91
2021/06/30 02:51:32;;;;;;;4.43;4.00;;;18.70;99.90;;;;;;5093170;28;20120;-91
2021/06/30 02:53:58;;;;;;;4.90;4.43;;;18.70;99.90;;;;;;5076233;28;20059;-91
2021/06/30 02:56:24;;;;;;;4.43;3.90;;;18.80;99.90;;;;;;5076994;28;20546;-91
2021/06/30 02:58:50;;;;;;;5.93;4.53;;;18.80;99.80;;;;;;5093151;28;20032;-91
2021/06/30 03:01:17;;;;;;;5.32;4.00;;;18.90;99.50;;;;;;5076827;28;20495;-92
2021/06/30 03:03:43;;;;;;;4.47;3.42;;;18.90;99.30;;;;;;5075951;28;20040;-91
2021/06/30 03:06:09;;;;;;;4.10;3.70;;;19.00;98.80;;;;;;5076019;28;20033;-91
2021/06/30 03:08:37;;;;;;;4.15;3.47;;;19.00;98.30;;;;;;5077479;28;20046;-92
2021/06/30 03:11:03;;;;;;;4.07;3.63;;;19.10;97.90;;;;;;5076026;28;20044;-92
2021/06/30 03:13:29;;;;;;;3.60;3.30;;;19.20;97.40;;;;;;5094110;28;20039;-91
2021/06/30 03:15:55;;;;;;;3.22;2.97;;;19.30;96.80;;;;;;5075902;28;20036;-91
2021/06/30 03:18:20;;;;;;;4.15;3.05;;;19.40;96.40;;;;;;5092679;28;20067;-91
2021/06/30 03:20:46;;;;;;;3.30;3.00;;;19.50;96.00;;;;;;5094793;28;20036;-92
2021/06/30 03:23:13;;;;;;;3.88;2.67;;;19.50;95.50;;;;;;5076464;28;20036;-92
2021/06/30 03:25:39;;;;;;;5.82;3.22;;;19.70;95.20;;;;;;5094945;28;20047;-92
2021/06/30 03:28:06;;;;;;;3.22;2.92;;;19.80;94.70;;;;;;5076503;28;20024;-92
2021/06/30 03:30:32;;;;;;;3.00;2.80;;;19.90;94.10;;;;;;5094145;28;20497;-92
2021/06/30 03:32:58;;;;;;;3.60;3.30;;;20.00;93.40;;;;;;5076519;28;20036;-92
2021/06/30 03:35:24;;;;;;;3.30;3.00;;;20.10;92.90;;;;;;5076512;28;20136;-92
2021/06/30 03:37:49;;;;;;;5.40;2.83;;;20.20;92.40;;;;;;5076305;28;20059;-92
2021/06/30 03:40:15;;;;;;;2.80;2.60;;;20.40;92.10;;;;;;5076290;28;20051;-92
2021/06/30 03:42:41;;;;;;;3.10;2.80;;;20.50;91.50;;;;;;5075966;28;20050;-92
2021/06/30 03:45:07;;;;;;;3.22;2.92;;;20.60;90.70;;;;;;5076129;28;20048;-92
2021/06/30 03:47:33;;;;;;;3.13;2.53;;;20.70;90.40;;;;;;5080117;28;20036;-92
2021/06/30 03:49:59;;;;;;;3.13;2.83;;;20.90;90.10;;;;;;5080185;28;20083;-92
2021/06/30 03:52:26;;;;;;;4.55;3.53;;;21.00;90.10;;;;;;5079982;28;20393;-91
2021/06/30 03:54:53;;;;;;;4.70;3.40;;;21.00;90.10;;;;;;5079940;28;20063;-90
2021/06/30 03:57:19;;;;;;;5.30;4.30;;;21.10;90.10;;;;;;5079454;28;20492;-92
2021/06/30 03:59:45;;;;;;;5.97;5.45;;;21.10;90.20;;;;;;5079851;28;20036;-91
2021/06/30 04:02:11;;;;;;;6.53;5.20;;;21.00;90.50;;;;;;5080696;28;20040;-91
2021/06/30 04:04:37;;;;;;;6.00;4.97;;;21.00;90.60;;;;;;5079845;28;20047;-92
2021/06/30 04:07:04;;;;;;;6.90;6.20;;;21.00;90.80;;;;;;5079232;28;20070;-90
2021/06/30 04:09:30;;;;;;;6.00;5.40;;;21.00;91.10;;;;;;5083687;28;20048;-91
2021/06/30 04:11:56;;;;;;;5.47;4.97;;;21.00;91.60;;;;;;5085408;28;20476;-91
2021/06/30 04:14:22;;;;;;;5.80;5.30;;;21.00;91.60;;;;;;5080875;28;20051;-92
2021/06/30 04:16:48;;;;;;;5.30;4.82;;;21.00;91.50;;;;;;5081851;28;20485;-92
2021/06/30 04:19:13;;;;;;;5.82;5.32;;;21.10;91.50;;;;;;5080955;28;20028;-92
2021/06/30 04:21:39;;;;;;;5.10;4.70;;;21.10;91.40;;;;;;5080019;28;20031;-91
2021/06/30 04:24:07;;;;;;;5.10;4.60;;;21.10;91.70;;;;;;5100128;28;20046;-92
2021/06/30 04:26:34;;;;;;;5.15;4.50;;;21.20;91.80;;;;;;5079656;28;20154;-92
2021/06/30 04:28:59;;;;;;;4.70;4.30;;;21.40;91.60;;;;;;5098779;28;20040;-92
2021/06/30 04:31:25;;;;;;;5.38;4.47;;;21.50;91.50;;;;;;5079812;28;20424;-92
2021/06/30 04:33:51;;;;;;;4.50;4.10;;;21.60;91.20;;;;;;5079483;28;20024;-92
2021/06/30 04:36:17;;;;;;;4.22;3.90;;;21.70;90.90;;;;;;5079744;28;20487;-92
2021/06/30 04:38:43;;;;;;;4.20;3.67;;;21.80;90.70;;;;;;5078961;28;20036;-93
2021/06/30 04:41:10;;;;;;;4.18;3.78;;;22.00;90.30;;;;;;5079069;28;20443;-92
2021/06/30 04:43:36;;;;;;;4.00;3.70;;;22.20;90.00;;;;;;5078976;28;20400;-92
2021/06/30 04:46:02;;;;;;;4.53;4.00;;;22.40;89.10;;;;;;5078799;28;20119;-92
2021/06/30 04:48:28;;;;;;;4.13;3.67;;;22.50;88.40;;;;;;5078687;28;20074;-92
2021/06/30 04:50:54;;;;;;;3.63;3.33;;;22.70;87.10;;;;;;5095339;28;20047;-92
2021/06/30 04:53:20;;;;;;;3.95;3.55;;;22.90;86.20;;;;;;5078251;28;20032;-92
2021/06/30 04:55:47;;;;;;;3.70;3.40;;;23.00;85.20;;;;;;5078862;28;20575;-92
2021/06/30 04:58:12;;;;;;;3.70;3.40;;;23.20;84.30;;;;;;5079313;28;20035;-91
2021/06/30 05:00:38;;;;;;;4.13;3.80;;;23.50;83.30;;;;;;5079176;28;20032;-92
2021/06/30 05:03:04;;;;;;;4.40;4.00;;;23.70;82.30;;;;;;5078635;28;20122;-92
2021/06/30 05:05:30;;;;;;;5.53;3.78;;;23.90;81.20;;;;;;5078828;28;20032;-91
2021/06/30 05:07:56;;;;;;;4.10;3.70;;;24.10;80.50;;;;;;5080999;28;20049;-92
2021/06/30 05:10:22;;;;;;;3.75;3.45;;;24.30;79.50;;;;;;5080075;28;20131;-92
2021/06/30 05:12:48;;;;;;;4.43;3.58;;;24.60;78.50;;;;;;5077518;28;20032;-91
2021/06/30 05:15:14;;;;;;;4.22;3.75;;;24.80;77.50;;;;;;5078181;28;20499;-92
2021/06/30 05:17:39;;;;;;;4.20;3.85;;;25.10;77.30;;;;;;5077911;28;20042;-92
2021/06/30 05:20:06;;;;;;;4.75;4.35;;;25.50;77.00;;;;;;5096041;28;20036;-92
2021/06/30 05:22:32;;;;;;;5.65;3.97;;;25.90;77.00;;;;;;5077505;28;20036;-93
2021/06/30 05:24:58;;;;;;;3.90;3.60;;;26.20;75.90;;;;;;5076711;28;20154;-90
2021/06/30 05:27:23;;;;;;;5.97;4.30;;;26.60;75.70;;;;;;5077157;28;20409;-89
2021/06/30 05:29:49;;;;;;;4.35;3.95;;;27.10;75.00;;;;;;5078562;28;20054;-91
2021/06/30 05:32:15;;;;;;;4.30;3.90;;;27.40;73.40;;;;;;5079085;28;20423;-90
2021/06/30 05:34:41;;;;;;;6.05;3.90;;;27.80;71.90;;;;;;5079974;28;20097;-90
2021/06/30 05:37:07;;;;;;;3.90;3.60;;;28.00;70.60;;;;;;5079052;28;20041;-91
2021/06/30 05:39:32;;;;;;;4.15;3.80;;;28.10;70.10;;;;;;5096725;28;20044;-89
2021/06/30 05:41:58;;;;;;;5.85;3.50;;;28.50;70.00;;;;;;5079614;28;20086;-89
2021/06/30 05:44:24;;;;;;;3.20;3.00;;;28.80;69.20;;;;;;5078507;28;20032;-90
2021/06/30 05:46:50;;;;;;;6.13;2.90;;;29.10;68.30;;;;;;5093354;28;20131;-90
2021/06/30 05:49:17;;;;;;;2.88;2.67;;;29.40;67.40;;;;;;5093255;28;20120;-90
2021/06/30 05:51:42;;;;;;;2.92;2.63;;;29.90;66.70;;;;;;5077764;28;20036;-90
2021/06/30 05:54:09;;;;;;;2.50;2.30;;;30.50;66.30;;;;;;5077578;28;20032;-90
2021/06/30 05:56:36;;;;;;;2.83;2.17;;;30.80;63.60;;;;;;5077121;28;20039;-91
2021/06/30 05:59:02;;;;;;;3.05;2.38;;;31.20;63.20;;;;;;5078121;28;20076;-90
2021/06/30 06:01:29;;;;;;;4.25;2.60;;;31.40;62.20;;;;;;5082466;28;20075;-89
2021/06/30 06:03:54;;;;;;;2.88;2.42;;;31.50;60.40;;;;;;5078775;28;20584;-89
2021/06/30 06:06:20;;;;;;;2.38;2.17;;;31.50;59.80;;;;;;5074502;28;20068;-89
2021/06/30 06:08:46;;;;;;;2.50;2.30;;;31.70;59.60;;;;;;5078072;28;20043;-90
2021/06/30 06:11:12;;;;;;;3.30;2.33;;;32.10;58.80;;;;;;5093993;28;20036;-90
2021/06/30 06:13:44;;;;;;;3.15;2.20;;;32.40;57.80;;;;;;5076909;28;20063;-90
2021/06/30 06:16:10;;;;;;;2.45;2.25;;;32.70;56.70;;;;;;5076761;28;20032;-90
2021/06/30 06:18:36;;;;;;;3.97;2.40;;;32.90;57.00;;;;;;5073344;28;20500;-90
2021/06/30 06:21:03;;;;;;;4.22;2.30;;;33.20;56.30;;;;;;5089874;28;20051;-89
2021/06/30 06:23:29;;;;;;;2.90;2.60;;;33.50;55.90;;;;;;5074518;28;20054;-90
2021/06/30 06:25:55;;;;;;;2.22;2.13;;;33.70;55.30;;;;;;5074403;28;20123;-89
2021/06/30 06:28:21;;;;;;;2.20;2.00;;;33.70;55.00;;;;;;5074922;28;20071;-89
2021/06/30 06:30:51;;;;;;;2.10;1.95;;;34.00;54.40;;;;;;5075117;28;20489;-90
2021/06/30 06:33:18;;;;;;;3.80;1.80;;;34.30;53.60;;;;;;5073905;28;20090;-90
2021/06/30 06:35:44;;;;;;;1.77;1.67;;;34.60;53.40;;;;;;5076493;28;20088;-93
2021/06/30 06:38:10;;;;;;;2.53;2.30;;;34.80;52.60;;;;;;5072176;28;20508;-89
2021/06/30 06:40:38;;;;;;;2.50;2.15;;;35.10;51.80;;;;;;5070383;28;20471;-92
2021/06/30 06:43:04;;;;;;;2.08;1.88;;;35.20;51.40;;;;;;5073601;28;20039;-90
2021/06/30 06:45:29;;;;;;;2.17;2.08;;;35.40;51.40;;;;;;5089718;28;20355;-90
2021/06/30 06:47:55;;;;;;;2.08;1.92;;;35.50;50.60;;;;;;5072081;28;20035;-91
2021/06/30 06:50:21;;;;;;;2.05;1.85;;;35.70;50.40;;;;;;5073252;28;20131;-91
2021/06/30 06:52:47;;;;;;;1.70;1.60;;;35.90;50.20;;;;;;5093625;28;20036;-89
2021/06/30 06:55:13;;;;;;;2.10;1.90;;;36.10;50.00;;;;;;5090324;28;20078;-90
2021/06/30 06:57:39;;;;;;;2.15;2.05;;;36.20;49.20;;;;;;5091216;28;20051;-91
2021/06/30 07:00:06;;;;;;;4.43;1.90;;;36.20;48.50;;;;;;5089814;28;20072;-91
2021/06/30 07:02:32;;;;;;;1.98;1.70;;;36.30;48.60;;;;;;5072625;28;20066;-92
2021/06/30 07:04:58;;;;;;;2.17;2.00;;;36.40;48.50;;;;;;5077973;28;20043;-91
2021/06/30 07:07:24;;;;;;;2.28;1.90;;;36.70;47.80;;;;;;5082569;28;20320;-91
2021/06/30 07:09:50;;;;;;;2.03;1.90;;;36.70;47.80;;;;;;5079325;28;20095;-92
2021/06/30 07:12:16;;;;;;;3.08;2.00;;;36.70;48.10;;;;;;5096710;28;20567;-91
2021/06/30 07:14:47;;;;;;;3.20;1.77;;;37.00;47.70;;;;;;5079199;28;20110;-91
2021/06/30 07:17:12;;;;;;;3.08;2.10;;;37.20;47.30;;;;;;5105397;22;20059;-91
2021/06/30 07:19:38;;;;;;;2.40;1.92;;;37.40;47.40;;;;;;5075040;28;20025;-91
2021/06/30 07:22:04;;;;;;;2.10;1.90;;;37.60;47.40;;;;;;5073993;28;20055;-90
2021/06/30 07:24:30;;;;;;;2.00;1.90;;;37.80;47.30;;;;;;5075942;28;20025;-91
2021/06/30 07:26:58;;;;;;;2.88;1.80;;;38.30;46.90;;;;;;5073502;28;20052;-92
2021/06/30 07:29:24;;;;;;;2.10;1.90;;;38.60;46.40;;;;;;5072040;28;20048;-90
2021/06/30 07:31:49;;;;;;;2.10;2.00;;;38.70;46.20;;;;;;5072100;28;20047;-89
2021/06/30 07:34:15;;;;;;;2.10;2.00;;;38.80;45.90;;;;;;5072014;28;20119;-90
2021/06/30 07:36:41;;;;;;;2.05;1.95;;;39.10;45.50;;;;;;5072552;28;20433;-90
2021/06/30 07:39:08;;;;;;;1.70;1.60;;;39.50;45.10;;;;;;5074470;28;20393;-92
2021/06/30 07:41:34;;;;;;;3.45;2.53;;;39.60;44.40;;;;;;5073046;28;20033;-90
2021/06/30 07:44:00;;;;;;;1.90;1.80;;;39.40;43.80;;;;;;5075948;28;20081;-90
2021/06/30 07:46:27;;;;;;;2.20;2.10;;;39.20;44.30;;;;;;5075141;28;20409;-91
2021/06/30 07:48:54;;;;;;;2.55;2.35;;;38.90;43.80;;;;;;5076145;28;20045;-90
2021/06/30 07:51:20;;;;;;;2.45;2.25;;;38.50;43.80;;;;;;5076160;28;20044;-91
2021/06/30 07:53:45;;;;;;;2.20;2.10;;;38.20;44.10;;;;;;5071873;28;20553;-92
2021/06/30 07:56:12;;;;;;;2.45;2.25;;;38.00;44.50;;;;;;5073091;28;20044;-90
2021/06/30 07:58:41;;;;;;;2.10;2.00;;;38.00;44.40;;;;;;5072879;28;20055;-91
2021/06/30 08:01:07;;;;;;;2.10;2.00;;;38.00;43.80;;;;;;5072943;28;20045;-90
2021/06/30 08:03:33;;;;;;;2.33;2.22;;;38.00;44.10;;;;;;5074632;28;20032;-91
2021/06/30 08:05:58;;;;;;;2.70;2.50;;;37.80;43.00;;;;;;5072933;28;20043;-91
2021/06/30 08:08:27;;;;;;;2.67;2.47;;;37.40;43.70;;;;;;5076783;28;20124;-93
2021/06/30 08:10:54;;;;;;;2.50;2.05;;;37.40;43.10;;;;;;5073506;28;20409;-90
2021/06/30 08:13:20;;;;;;;2.20;2.10;;;37.50;43.80;;;;;;5093229;28;20021;-91
2021/06/30 08:15:45;;;;;;;2.15;2.05;;;37.60;43.60;;;;;;5089918;28;20044;-90
2021/06/30 08:18:14;;;;;;;2.28;2.08;;;37.80;43.50;;;;;;5074637;28;20043;-91
2021/06/30 08:20:41;;;;;;;2.17;2.08;;;37.80;43.20;;;;;;5073770;28;20028;-90
2021/06/30 08:23:07;;;;;;;2.72;2.10;;;38.10;43.30;;;;;;5072284;28;20123;-90
2021/06/30 08:25:32;;;;;;;2.47;2.33;;;38.80;43.30;;;;;;5073157;28;20553;-89
2021/06/30 08:27:59;;;;;;;2.40;1.90;;;39.20;42.70;;;;;;5073658;28;20397;-90
2021/06/30 08:30:25;;;;;;;2.38;2.17;;;39.40;42.70;;;;;;5071510;28;20140;-91
2021/06/30 08:32:51;;;;;;;2.30;2.20;;;39.70;41.80;;;;;;5073074;28;20060;-92
2021/06/30 08:35:17;;;;;;;5.10;2.20;;;39.60;41.90;;;;;;5075534;28;20516;-90
2021/06/30 08:37:46;;;;;;;2.10;1.90;;;40.00;41.90;;;;;;5075688;28;20540;-92
2021/06/30 08:40:13;;;;;;;2.65;2.45;;;40.40;41.50;;;;;;5078374;28;20037;-91
2021/06/30 08:42:48;;;;;;;2.60;2.40;;;40.50;40.70;;;;;;5079192;28;20087;-92
2021/06/30 08:45:14;;;;;;;2.47;2.20;;;39.90;41.00;;;;;;5062127;28;20178;-93
2021/06/30 08:47:42;;;;;;;2.30;2.10;;;39.50;41.60;;;;;;5076921;28;20082;-92
2021/06/30 08:50:09;;;;;;;2.13;2.03;;;39.50;41.90;;;;;;5077594;28;20040;-92
2021/06/30 08:52:37;;;;;;;2.55;2.35;;;39.90;41.90;;;;;;5072431;28;20519;-93
2021/06/30 08:55:04;;;;;;;2.40;2.20;;;40.40;41.80;;;;;;5070492;28;20555;-93
2021/06/30 08:57:32;;;;;;;2.17;2.05;;;40.70;40.80;;;;;;5072673;28;20049;-92
2021/06/30 08:59:58;;;;;;;2.40;2.20;;;40.40;41.00;;;;;;5076731;28;20086;-93
2021/06/30 09:02:28;;;;;;;2.75;2.42;;;40.00;41.30;;;;;;5073558;28;20071;-92
2021/06/30 09:05:24;;;;;;;4.35;2.40;;;40.10;41.60;;;;;;5074637;28;20036;-92
2021/06/30 09:07:51;;;;;;;2.35;2.20;;;40.50;41.70;;;;;;5074894;28;20051;-93
2021/06/30 09:10:36;;;;;;;2.97;2.67;;;41.10;41.80;;;;;;5076434;28;20040;-91
2021/06/30 09:13:07;;;;;;;2.88;2.65;;;41.20;40.30;;;;;;5075966;28;20060;-90
2021/06/30 09:15:37;;;;;;;2.83;2.63;;;40.70;40.40;;;;;;5088447;22;20502;-91
2021/06/30 09:18:44;;;;;;;2.55;2.42;;;40.40;40.50;;;;;;5076744;28;20119;-90
2021/06/30 09:21:29;;;;;;;3.40;2.25;;;40.30;40.60;;;;;;5058373;28;20047;-90
2021/06/30 09:23:56;;;;;;;2.72;2.53;;;40.30;41.10;;;;;;5057107;28;20036;-91
2021/06/30 09:26:22;;;;;;;3.53;2.80;;;40.50;40.60;;;;;;5057086;28;20033;-92
2021/06/30 09:28:48;;;;;;;2.30;2.20;;;40.80;40.80;;;;;;5075196;28;20067;-89
2021/06/30 09:31:15;;;;;;;2.35;2.25;;;41.20;40.90;;;;;;5501780;23;20927;-91
2021/06/30 09:33:56;;;;;;;2.30;2.20;;;41.50;40.60;;;;;;5075425;28;20035;-91
2021/06/30 09:36:27;;;;;;;2.50;2.30;;;42.30;40.10;;;;;;5074862;28;20389;-90
2021/06/30 09:38:53;;;;;;;2.10;2.00;;;42.70;39.60;;;;;;5079385;28;20529;-91
2021/06/30 09:41:30;;;;;;;2.35;2.25;;;42.70;39.60;;;;;;5104078;28;20032;-90
2021/06/30 09:44:11;;;;;;;2.20;2.00;;;43.10;39.10;;;;;;5090274;28;20041;-91
2021/06/30 09:46:38;;;;;;;1.80;1.70;;;42.90;38.60;;;;;;5084312;28;20032;-91
2021/06/30 09:49:11;;;;;;;3.45;1.95;;;42.00;38.70;;;;;;5077898;28;20059;-90
2021/06/30 09:51:38;;;;;;;2.25;1.90;;;41.00;39.30;;;;;;5075538;28;20028;-91
2021/06/30 09:54:14;;;;;;;2.13;2.03;;;40.60;40.40;;;;;;5074387;28;20039;-90
2021/06/30 09:57:12;;;;;;;2.00;1.75;;;40.70;40.40;;;;;;5074178;28;20110;-90
2021/06/30 09:59:43;;;;;;;2.53;2.03;;;41.40;40.10;;;;;;5076589;28;20047;-91
2021/06/30 10:02:13;;;;;;;2.63;1.88;;;41.80;40.00;;;;;;5076016;28;20028;-90
2021/06/30 10:04:47;;;;;;;2.13;1.90;;;41.50;39.50;;;;;;5074483;28;20075;-90
2021/06/30 10:07:24;;;;;;;2.22;2.10;;;40.70;39.30;;;;;;5074202;28;20046;-90
2021/06/30 10:09:53;;;;;;;4.25;2.17;;;39.60;40.00;;;;;;5082005;28;20098;-91
2021/06/30 10:12:27;;;;;;;2.40;2.20;;;38.30;40.70;;;;;;5080177;28;20029;-90
2021/06/30 10:14:54;;;;;;;2.85;2.30;;;37.40;41.60;;;;;;5076074;28;20128;-91
2021/06/30 10:17:21;;;;;;;3.83;2.70;;;37.00;42.70;;;;;;5076637;28;20115;-93
2021/06/30 10:19:48;;;;;;;2.30;2.20;;;37.40;43.10;;;;;;5098720;22;20179;-92
2021/06/30 10:22:15;;;;;;;2.45;2.05;;;38.20;42.70;;;;;;5075531;28;20043;-91
2021/06/30 10:24:42;;;;;;;3.00;2.33;;;39.10;42.20;;;;;;5074645;28;20036;-91
2021/06/30 10:27:09;;;;;;;2.45;1.83;;;39.50;41.80;;;;;;5073239;28;20028;-90
2021/06/30 10:29:42;;;;;;;2.47;2.25;;;39.60;41.60;;;;;;5071576;28;20075;-90
2021/06/30 10:32:14;;;;;;;7.03;2.13;;;39.80;41.50;;;;;;5070900;28;20031;-92
2021/06/30 10:34:46;;;;;;;1.83;1.73;;;40.00;41.20;;;;;;5068974;28;20045;-90
2021/06/30 10:37:29;;;;;;;3.53;2.20;;;40.30;41.40;;;;;;5070215;28;20086;-91
2021/06/30 10:39:56;;;;;;;2.25;1.73;;;40.70;41.00;;;;;;5068975;28;20051;-92
2021/06/30 10:42:35;;;;;;;2.60;2.40;;;41.30;41.10;;;;;;5070989;28;20090;-91
2021/06/30 10:45:05;;;;;;;2.28;2.08;;;42.00;40.10;;;;;;5072039;28;20482;-91
2021/06/30 10:47:42;;;;;;;2.00;1.90;;;42.20;39.60;;;;;;5073044;28;20040;-91
2021/06/30 10:50:21;;;;;;;1.92;1.83;;;42.60;39.40;;;;;;5072044;28;20048;-90
2021/06/30 10:53:06;;;;;;;4.50;1.77;;;42.90;39.10;;;;;;5072198;28;20505;-91
2021/06/30 10:55:32;;;;;;;2.63;2.20;;;43.60;38.30;;;;;;5073743;28;20033;-91
2021/06/30 10:58:16;;;;;;;2.17;2.08;;;44.20;38.60;;;;;;5074637;28;20029;-91
2021/06/30 11:00:54;;;;;;;2.10;2.00;;;44.50;37.00;;;;;;5072768;28;20064;-90
2021/06/30 11:03:30;;;;;;;3.22;2.00;;;44.90;38.40;;;;;;5073425;28;20039;-92
2021/06/30 11:06:14;;;;;;;2.50;2.30;;;45.60;37.40;;;;;;5075221;28;20086;-90
2021/06/30 11:09:00;;;;;;;2.75;1.90;;;45.60;36.00;;;;;;5073161;28;20103;-90
2021/06/30 11:11:29;;;;;;;2.08;1.98;;;45.30;36.50;;;;;;5070667;28;20045;-91
2021/06/30 11:14:19;;;;;;;1.80;1.70;;;44.90;36.50;;;;;;5073770;28;20482;-90
2021/06/30 11:16:49;;;;;;;2.00;1.80;;;44.60;35.90;;;;;;5072343;28;20043;-92
2021/06/30 11:19:18;;;;;;;2.20;2.00;;;44.30;36.70;;;;;;5072743;28;20045;-90
2021/06/30 11:21:48;;;;;;;2.00;1.90;;;44.50;36.80;;;;;;5073606;28;20359;-89
2021/06/30 11:24:32;;;;;;;1.80;1.70;;;44.90;36.40;;;;;;5073817;28;20041;-90
2021/06/30 11:26:58;;;;;;;1.98;1.88;;;45.00;36.00;;;;;;5072991;28;20090;-90
2021/06/30 11:29:50;;;;;;;1.70;1.60;;;45.20;36.30;;;;;;5072377;28;20143;-90
2021/06/30 11:32:32;;;;;;;1.73;1.63;;;45.50;35.30;;;;;;5074050;28;20037;-90
2021/06/30 11:35:04;;;;;;;1.65;1.55;;;45.50;36.20;;;;;;5073678;28;20043;-89
2021/06/30 11:37:31;;;;;;;4.55;1.80;;;45.30;35.60;;;;;;5074399;28;20033;-90
2021/06/30 11:40:01;;;;;;;1.70;1.60;;;44.20;35.70;;;;;;5088245;28;20041;-90
2021/06/30 11:42:35;;;;;;;2.25;1.50;;;43.10;36.20;;;;;;5080109;28;20041;-90
2021/06/30 11:45:01;;;;;;;5.13;1.90;;;42.10;36.80;;;;;;5073674;28;20146;-90
2021/06/30 11:47:28;;;;;;;2.72;1.75;;;41.50;37.70;;;;;;5076242;28;20375;-90
2021/06/30 11:50:02;;;;;;;2.17;2.00;;;41.00;38.00;;;;;;5089001;28;20052;-90
2021/06/30 11:52:29;;;;;;;1.98;1.80;;;40.90;38.90;;;;;;5074092;28;20043;-91
2021/06/30 11:54:56;;;;;;;2.03;1.92;;;41.30;38.80;;;;;;5090348;28;20049;-90
2021/06/30 11:57:22;;;;;;;1.85;1.75;;;41.20;38.20;;;;;;5077169;28;20127;-89
2021/06/30 11:59:47;;;;;;;1.73;1.63;;;41.20;38.70;;;;;;5072938;28;20079;-90
2021/06/30 12:02:13;;;;;;;5.32;2.00;;;41.30;38.70;;;;;;5072425;28;20111;-90
2021/06/30 12:04:40;;;;;;;1.90;1.80;;;41.10;38.60;;;;;;5073318;28;20110;-90
2021/06/30 12:07:06;;;;;;;1.75;1.65;;;41.20;39.00;;;;;;5090878;28;20041;-91
2021/06/30 12:09:32;;;;;;;1.98;1.88;;;42.00;38.90;;;;;;5094530;28;20041;-90
2021/06/30 12:12:05;;;;;;;1.80;1.70;;;43.10;38.50;;;;;;5077554;28;20068;-91
2021/06/30 12:14:49;;;;;;;2.05;1.95;;;43.80;37.50;;;;;;5076568;28;20049;-91
2021/06/30 12:17:19;;;;;;;1.90;1.70;;;44.50;36.90;;;;;;5076525;28;20405;-91
2021/06/30 12:19:50;;;;;;;2.30;1.85;;;45.40;36.50;;;;;;5077576;28;20378;-92
2021/06/30 12:22:20;;;;;;;1.95;1.70;;;45.90;35.80;;;;;;5075857;28;20449;-92
2021/06/30 12:24:50;;;;;;;2.90;1.85;;;46.30;35.40;;;;;;5080471;28;20108;-92
2021/06/30 12:27:16;;;;;;;1.90;1.80;;;46.50;35.30;;;;;;5076876;28;20044;-92
2021/06/30 12:29:42;;;;;;;1.73;1.63;;;46.80;34.80;;;;;;5091729;28;20049;-91
2021/06/30 12:32:14;;;;;;;1.88;1.77;;;46.70;34.40;;;;;;5091604;28;20482;-90
2021/06/30 12:34:42;;;;;;;2.03;1.92;;;46.30;34.20;;;;;;5073347;28;20033;-92
2021/06/30 12:37:09;;;;;;;1.70;1.60;;;45.50;33.90;;;;;;5076770;28;20036;-92
2021/06/30 12:39:37;;;;;;;1.60;1.50;;;44.70;34.30;;;;;;5074837;28;20044;-93
2021/06/30 12:42:07;;;;;;;1.70;1.60;;;44.60;34.60;;;;;;5073348;28;20036;-92
2021/06/30 12:44:58;;;;;;;1.77;1.67;;;44.80;33.80;;;;;;5076147;28;20105;-92
2021/06/30 12:47:27;;;;;;;1.70;1.60;;;44.70;33.90;;;;;;5078655;28;20110;-89
2021/06/30 12:50:07;;;;;;;2.20;1.80;;;44.50;33.60;;;;;;5071734;28;20048;-91
2021/06/30 12:52:34;;;;;;;1.80;1.70;;;44.20;33.70;;;;;;5071369;28;20043;-90
2021/06/30 12:55:11;;;;;;;1.83;1.73;;;44.40;33.50;;;;;;5070600;28;20047;-92